Time;durP1;ratioP1;P1;durP2;ratioP2;P2;SDS_P1;SDS_P2;PMS_P1;PMS_P2;Temp;Humidity;BMP_temperature;BMP_pressure;BME280_temperature;BME280_humidity;BME280_pressure;Samples;Min_cycle;Max_cycle;Signal;HPM_P1;HPM_P2
2023/03/30 00:00:00;;;;;;;2.73;1.00;;;15.90;99.90;;;;;;4991745;28;20570;-74
2023/03/30 00:02:29;;;;;;;4.17;1.20;;;16.00;99.90;;;;;;4990352;28;20610;-73
2023/03/30 00:05:01;;;;;;;2.80;1.40;;;16.00;99.90;;;;;;4992496;28;20590;-73
2023/03/30 00:07:30;;;;;;;5.33;1.03;;;16.00;99.90;;;;;;4993880;28;20589;-73
2023/03/30 00:09:57;;;;;;;3.57;1.30;;;16.00;99.90;;;;;;5011684;28;20573;-73
2023/03/30 00:12:23;;;;;;;2.50;0.90;;;16.00;99.90;;;;;;5010696;28;20799;-73
2023/03/30 00:14:49;;;;;;;3.07;1.33;;;16.10;99.90;;;;;;5011814;28;20719;-73
2023/03/30 00:17:15;;;;;;;7.80;1.83;;;16.10;99.90;;;;;;5010239;28;20209;-73
2023/03/30 00:19:40;;;;;;;4.13;1.33;;;16.10;99.90;;;;;;5010227;28;20584;-73
2023/03/30 00:22:07;;;;;;;3.03;1.13;;;16.10;99.90;;;;;;4990887;28;20676;-73
2023/03/30 00:24:35;;;;;;;3.33;1.20;;;16.10;99.90;;;;;;4991965;28;20179;-73
2023/03/30 00:27:01;;;;;;;6.37;1.43;;;16.10;99.90;;;;;;5006602;28;21119;-73
2023/03/30 00:29:27;;;;;;;5.40;1.10;;;16.10;99.90;;;;;;4991851;28;20570;-73
2023/03/30 00:31:53;;;;;;;3.30;1.13;;;16.10;99.90;;;;;;4990039;28;20625;-73
2023/03/30 00:34:19;;;;;;;3.87;1.40;;;16.10;99.90;;;;;;4991183;28;21344;-72
2023/03/30 00:36:48;;;;;;;3.20;1.00;;;16.10;99.90;;;;;;5006728;28;20579;-72
2023/03/30 00:39:17;;;;;;;2.00;1.00;;;16.10;99.90;;;;;;4989923;28;20586;-72
2023/03/30 00:41:43;;;;;;;4.33;1.50;;;16.00;99.90;;;;;;4990012;28;20610;-73
2023/03/30 00:44:47;;;;;;;3.77;1.40;;;16.00;99.90;;;;;;4990067;28;20602;-72
2023/03/30 00:47:15;;;;;;;4.90;1.20;;;16.00;99.90;;;;;;4990312;28;20596;-72
2023/03/30 00:49:42;;;;;;;5.00;1.10;;;16.00;99.90;;;;;;4973608;28;20589;-72
2023/03/30 00:52:09;;;;;;;2.33;1.20;;;16.00;99.90;;;;;;5000300;28;20629;-72
2023/03/30 00:54:37;;;;;;;1.87;1.00;;;16.00;99.90;;;;;;5009403;28;20635;-73
2023/03/30 00:57:06;;;;;;;3.93;1.10;;;16.00;99.90;;;;;;4993411;28;20640;-72
2023/03/30 00:59:32;;;;;;;3.30;1.17;;;16.00;99.90;;;;;;4974571;28;20685;-73
2023/03/30 01:02:00;;;;;;;3.60;1.10;;;16.00;99.90;;;;;;4973708;28;20653;-72
2023/03/30 01:04:47;;;;;;;5.43;1.57;;;16.00;99.90;;;;;;5005587;28;20656;-73
2023/03/30 01:07:14;;;;;;;5.80;1.50;;;16.00;99.90;;;;;;4998282;28;20621;-73
2023/03/30 01:09:41;;;;;;;3.60;1.07;;;16.00;99.90;;;;;;4994841;28;21062;-73
2023/03/30 01:12:07;;;;;;;3.27;1.20;;;15.90;99.90;;;;;;5000971;28;20641;-73
2023/03/30 01:14:34;;;;;;;4.13;1.13;;;16.00;99.90;;;;;;4989170;28;20614;-72
2023/03/30 01:17:25;;;;;;;3.50;1.13;;;16.00;99.90;;;;;;4996924;28;20637;-72
2023/03/30 01:20:33;;;;;;;3.50;1.40;;;16.00;99.90;;;;;;5000175;28;20662;-72
2023/03/30 01:23:32;;;;;;;3.20;1.17;;;16.00;99.90;;;;;;4990440;28;21215;-74
2023/03/30 01:26:05;;;;;;;2.47;1.00;;;16.10;99.90;;;;;;4994063;28;20701;-73
2023/03/30 01:28:39;;;;;;;4.40;1.30;;;16.10;99.90;;;;;;4978771;28;20629;-73
2023/03/30 01:31:24;;;;;;;2.40;1.20;;;16.20;99.90;;;;;;4981065;28;20622;-74
2023/03/30 01:33:59;;;;;;;3.40;1.30;;;16.20;99.90;;;;;;4998274;28;20578;-74
2023/03/30 01:36:56;;;;;;;4.07;0.97;;;16.30;99.90;;;;;;4997597;28;20629;-73
2023/03/30 01:40:09;;;;;;;2.50;1.00;;;16.20;99.90;;;;;;4997221;28;20938;-73
2023/03/30 01:42:41;;;;;;;5.77;1.40;;;16.30;99.90;;;;;;4980046;28;21238;-74
2023/03/30 01:45:35;;;;;;;4.53;1.20;;;16.40;99.90;;;;;;4997236;28;20581;-73
2023/03/30 01:48:28;;;;;;;5.30;1.17;;;16.40;99.90;;;;;;4994099;28;20654;-73
2023/03/30 01:51:01;;;;;;;3.60;1.23;;;16.40;99.90;;;;;;4993562;28;20570;-73
2023/03/30 01:53:58;;;;;;;3.33;1.00;;;16.50;99.90;;;;;;4993173;28;20578;-73
2023/03/30 01:56:34;;;;;;;7.47;1.20;;;16.50;99.90;;;;;;4992989;28;20625;-74
2023/03/30 01:59:30;;;;;;;6.83;1.53;;;16.50;99.90;;;;;;4992750;28;20632;-73
2023/03/30 02:02:02;;;;;;;4.30;1.00;;;16.50;99.90;;;;;;4992600;28;20645;-73
2023/03/30 02:04:34;;;;;;;4.13;0.90;;;16.60;99.90;;;;;;4976231;28;20582;-73
2023/03/30 02:07:10;;;;;;;5.47;1.00;;;16.60;99.90;;;;;;4994230;28;20733;-73
2023/03/30 02:09:38;;;;;;;2.33;1.00;;;16.70;99.90;;;;;;4977751;28;20639;-73
2023/03/30 02:12:05;;;;;;;4.27;0.90;;;16.70;99.90;;;;;;4976856;28;20617;-73
2023/03/30 02:14:37;;;;;;;4.07;1.00;;;16.80;99.90;;;;;;4961480;28;20594;-73
2023/03/30 02:17:17;;;;;;;4.33;1.53;;;16.90;99.90;;;;;;4992286;28;21000;-73
2023/03/30 02:19:46;;;;;;;2.80;0.93;;;16.90;99.90;;;;;;4992778;28;20590;-74
2023/03/30 02:22:16;;;;;;;4.20;1.10;;;17.00;99.90;;;;;;4977021;28;20646;-74
2023/03/30 02:24:45;;;;;;;4.70;1.30;;;17.00;99.90;;;;;;4976157;28;20596;-74
2023/03/30 02:27:11;;;;;;;3.57;1.10;;;17.10;99.90;;;;;;4993263;28;20582;-73
2023/03/30 02:29:40;;;;;;;4.20;1.20;;;17.10;99.90;;;;;;4993707;28;20574;-73
2023/03/30 02:32:17;;;;;;;3.50;1.10;;;17.20;99.90;;;;;;4975243;28;20610;-74
2023/03/30 02:35:01;;;;;;;2.90;1.07;;;17.20;99.90;;;;;;4991244;28;20915;-74
2023/03/30 02:37:45;;;;;;;4.30;1.00;;;17.20;99.90;;;;;;4975454;28;20637;-74
2023/03/30 02:40:40;;;;;;;5.20;1.00;;;17.30;99.90;;;;;;4976230;28;20585;-74
2023/03/30 02:43:22;;;;;;;2.80;0.90;;;17.30;99.90;;;;;;4991265;28;20602;-74
2023/03/30 02:46:06;;;;;;;3.27;0.90;;;17.30;99.90;;;;;;4992618;28;20590;-80
2023/03/30 02:48:58;;;;;;;4.03;1.23;;;17.30;99.90;;;;;;5008366;28;20617;-80
2023/03/30 02:51:45;;;;;;;3.70;1.00;;;17.30;99.90;;;;;;4997361;28;20702;-80
2023/03/30 02:54:18;;;;;;;3.73;1.07;;;17.30;99.90;;;;;;4991767;28;20613;-80
2023/03/30 02:57:15;;;;;;;3.93;1.17;;;17.30;99.90;;;;;;4992912;28;20650;-79
2023/03/30 03:00:07;;;;;;;8.27;1.13;;;17.40;99.90;;;;;;4992810;28;21019;-80
2023/03/30 03:02:39;;;;;;;2.80;0.97;;;17.30;99.90;;;;;;4991442;28;20669;-80
2023/03/30 03:05:17;;;;;;;4.10;1.00;;;17.40;99.90;;;;;;4975490;28;20589;-80
2023/03/30 03:07:52;;;;;;;4.63;1.37;;;17.30;99.90;;;;;;5008103;28;20626;-80
2023/03/30 03:10:18;;;;;;;5.63;0.83;;;17.30;99.90;;;;;;4991205;28;20669;-80
2023/03/30 03:12:44;;;;;;;2.60;1.10;;;17.30;99.90;;;;;;4974663;28;20987;-80
2023/03/30 03:15:11;;;;;;;8.00;1.37;;;17.20;99.90;;;;;;4974819;28;20621;-80
2023/03/30 03:17:44;;;;;;;4.50;1.23;;;17.20;99.90;;;;;;4991109;28;20653;-80
2023/03/30 03:20:10;;;;;;;5.10;1.20;;;17.20;99.90;;;;;;4974648;28;20579;-80
2023/03/30 03:22:36;;;;;;;4.93;1.00;;;17.20;99.90;;;;;;4968966;28;20626;-80
2023/03/30 03:25:03;;;;;;;4.70;1.30;;;17.20;99.90;;;;;;4991341;28;20589;-80
2023/03/30 03:27:40;;;;;;;3.37;1.73;;;17.10;99.90;;;;;;5012010;28;20600;-80
2023/03/30 03:30:15;;;;;;;2.97;0.80;;;17.20;99.90;;;;;;4975025;28;21403;-80
2023/03/30 03:32:50;;;;;;;2.23;0.90;;;17.20;99.90;;;;;;5006865;28;20997;-80
2023/03/30 03:35:17;;;;;;;2.23;1.00;;;17.20;99.90;;;;;;4991445;28;20645;-80
2023/03/30 03:37:42;;;;;;;5.93;1.10;;;17.20;99.90;;;;;;4990651;28;21106;-80
2023/03/30 03:40:12;;;;;;;3.97;1.03;;;17.20;99.90;;;;;;4991081;28;20179;-80
2023/03/30 03:42:38;;;;;;;4.60;1.07;;;17.20;99.90;;;;;;4990250;28;20191;-80
2023/03/30 03:45:12;;;;;;;3.67;0.90;;;17.10;99.90;;;;;;5007802;28;21191;-80
2023/03/30 03:47:50;;;;;;;2.90;0.80;;;17.10;99.90;;;;;;4990421;28;20594;-79
2023/03/30 03:50:17;;;;;;;3.07;1.30;;;17.10;99.90;;;;;;4991598;28;20591;-79
2023/03/30 03:52:43;;;;;;;4.20;1.00;;;17.00;99.90;;;;;;4990806;28;20606;-79
2023/03/30 03:55:10;;;;;;;2.40;1.00;;;16.90;99.90;;;;;;4992338;28;20241;-79
2023/03/30 03:57:39;;;;;;;6.73;1.40;;;16.90;99.90;;;;;;4974924;28;20626;-79
2023/03/30 04:00:14;;;;;;;2.53;1.17;;;16.90;99.90;;;;;;4990595;28;20580;-79
2023/03/30 04:02:41;;;;;;;3.33;1.00;;;16.80;99.90;;;;;;4981412;28;20650;-79
2023/03/30 04:05:07;;;;;;;4.50;1.07;;;16.80;99.90;;;;;;4990855;28;20602;-79
2023/03/30 04:07:35;;;;;;;3.40;1.20;;;16.70;99.90;;;;;;4987745;28;20587;-79
2023/03/30 04:10:03;;;;;;;3.90;1.20;;;16.70;99.90;;;;;;4970960;28;20690;-79
2023/03/30 04:12:49;;;;;;;3.83;1.10;;;16.60;99.90;;;;;;4972131;28;20626;-80
2023/03/30 04:15:32;;;;;;;3.40;1.13;;;16.60;99.90;;;;;;5005994;28;20951;-80
2023/03/30 04:18:17;;;;;;;3.60;1.20;;;16.60;99.90;;;;;;4988799;28;20594;-79
2023/03/30 04:21:11;;;;;;;3.07;1.17;;;16.60;99.90;;;;;;4995342;28;20657;-80
2023/03/30 04:23:51;;;;;;;4.73;2.70;;;16.60;99.90;;;;;;4981989;28;20624;-79
2023/03/30 04:26:16;;;;;;;2.37;1.00;;;16.60;99.90;;;;;;4990081;28;20938;-79
2023/03/30 04:28:56;;;;;;;4.70;1.10;;;16.60;99.90;;;;;;4974415;28;21078;-79
2023/03/30 04:31:37;;;;;;;4.37;1.33;;;16.60;99.90;;;;;;4989306;28;20614;-80
2023/03/30 04:34:21;;;;;;;4.73;1.33;;;16.60;99.90;;;;;;4991512;28;20602;-80
2023/03/30 04:36:58;;;;;;;2.27;1.30;;;16.60;99.90;;;;;;4973673;28;20748;-80
2023/03/30 04:39:28;;;;;;;6.53;1.53;;;16.60;99.90;;;;;;4990474;28;20700;-80
2023/03/30 04:42:32;;;;;;;3.40;1.33;;;16.60;99.90;;;;;;4990352;28;20252;-80
2023/03/30 04:45:17;;;;;;;3.00;1.20;;;16.70;99.90;;;;;;4991640;28;20578;-80
2023/03/30 04:48:02;;;;;;;3.57;1.40;;;16.70;99.90;;;;;;4992420;28;21328;-79
2023/03/30 04:50:57;;;;;;;5.63;1.33;;;16.70;99.90;;;;;;4955682;28;20651;-80
2023/03/30 04:53:42;;;;;;;5.90;1.60;;;16.70;99.90;;;;;;5006190;28;20598;-79
2023/03/30 04:56:33;;;;;;;2.70;1.40;;;16.80;99.90;;;;;;4973753;28;21281;-79
2023/03/30 04:59:32;;;;;;;3.80;1.20;;;16.80;99.90;;;;;;4992710;28;20608;-79
2023/03/30 05:02:12;;;;;;;7.13;1.70;;;16.80;99.90;;;;;;5003402;28;20636;-78
2023/03/30 05:05:04;;;;;;;3.20;1.27;;;16.80;99.90;;;;;;4989825;28;20637;-79
2023/03/30 05:07:52;;;;;;;5.67;1.70;;;16.90;99.90;;;;;;5013323;28;20933;-79
2023/03/30 05:10:38;;;;;;;3.87;1.30;;;16.90;99.90;;;;;;5005720;28;20657;-79
2023/03/30 05:13:10;;;;;;;7.60;2.00;;;16.90;99.90;;;;;;4994825;28;20589;-79
2023/03/30 05:15:55;;;;;;;6.03;1.57;;;16.90;99.90;;;;;;5017871;28;20635;-78
2023/03/30 05:18:47;;;;;;;4.13;1.40;;;16.90;99.90;;;;;;5013685;28;20632;-77
2023/03/30 05:21:13;;;;;;;5.33;1.47;;;16.90;99.90;;;;;;5018005;28;20630;-76
2023/03/30 05:23:55;;;;;;;5.73;1.60;;;16.90;99.90;;;;;;4975525;28;20445;-76
2023/03/30 05:26:40;;;;;;;5.30;1.80;;;17.00;99.90;;;;;;5014714;28;20639;-77
2023/03/30 05:29:28;;;;;;;4.37;1.70;;;17.00;99.90;;;;;;4999955;28;20591;-77
2023/03/30 05:32:20;;;;;;;5.43;1.20;;;17.00;99.90;;;;;;5001681;28;21000;-77
2023/03/30 05:35:05;;;;;;;7.10;1.47;;;17.00;99.90;;;;;;5023825;28;20577;-77
2023/03/30 05:38:01;;;;;;;3.50;1.80;;;17.00;99.90;;;;;;5017524;28;20607;-77
2023/03/30 05:40:38;;;;;;;4.10;1.77;;;17.00;99.90;;;;;;5024045;28;20635;-77
2023/03/30 05:43:22;;;;;;;4.73;1.60;;;17.10;99.90;;;;;;5020763;28;21159;-77
2023/03/30 05:46:05;;;;;;;9.60;2.43;;;17.10;99.90;;;;;;5030204;28;20597;-78
2023/03/30 05:48:37;;;;;;;7.40;2.10;;;17.10;99.90;;;;;;5018100;28;20593;-77
2023/03/30 05:51:16;;;;;;;3.67;2.00;;;17.10;99.90;;;;;;4983443;28;20652;-78
2023/03/30 05:54:04;;;;;;;5.70;1.37;;;17.10;99.90;;;;;;4996762;28;20600;-80
2023/03/30 05:56:56;;;;;;;4.53;1.30;;;17.20;99.90;;;;;;5017624;28;20644;-80
2023/03/30 05:59:29;;;;;;;2.47;1.60;;;17.20;99.90;;;;;;4996415;28;20592;-80
2023/03/30 06:02:14;;;;;;;3.83;1.40;;;17.20;99.90;;;;;;5011550;28;20624;-80
2023/03/30 06:04:40;;;;;;;5.10;1.57;;;17.20;99.90;;;;;;5012568;28;20581;-80
2023/03/30 06:07:07;;;;;;;4.20;1.60;;;17.30;99.90;;;;;;4979000;28;21433;-80
2023/03/30 06:09:33;;;;;;;4.80;1.47;;;17.30;99.90;;;;;;4976233;28;20698;-79
2023/03/30 06:12:03;;;;;;;5.00;1.87;;;17.30;99.90;;;;;;4972940;28;20618;-80
2023/03/30 06:14:30;;;;;;;2.80;1.20;;;17.40;99.90;;;;;;4956713;28;20591;-81
2023/03/30 06:17:14;;;;;;;3.13;1.30;;;17.40;99.90;;;;;;4989556;28;20648;-80
2023/03/30 06:19:42;;;;;;;3.57;1.50;;;17.40;99.90;;;;;;4989029;28;20590;-80
2023/03/30 06:22:08;;;;;;;2.97;1.40;;;17.40;99.90;;;;;;4998384;28;20634;-81
2023/03/30 06:24:54;;;;;;;4.40;1.40;;;17.40;99.90;;;;;;4992854;28;20594;-80
2023/03/30 06:27:20;;;;;;;7.17;1.23;;;17.50;99.90;;;;;;4992378;28;20594;-80
2023/03/30 06:29:46;;;;;;;4.17;1.37;;;17.50;99.90;;;;;;4992087;28;20604;-80
2023/03/30 06:32:12;;;;;;;3.40;1.30;;;17.50;99.90;;;;;;4994754;28;20997;-80
2023/03/30 06:35:14;;;;;;;5.77;1.20;;;17.50;99.90;;;;;;4992280;28;20182;-80
2023/03/30 06:37:40;;;;;;;4.57;1.20;;;17.50;99.90;;;;;;5010211;28;20637;-80
2023/03/30 06:40:12;;;;;;;3.70;1.30;;;17.50;99.90;;;;;;4975922;28;20673;-80
2023/03/30 06:42:43;;;;;;;5.17;1.37;;;17.50;99.90;;;;;;5008283;28;20614;-81
2023/03/30 06:45:28;;;;;;;2.77;1.20;;;17.50;99.90;;;;;;4984889;28;20590;-80
2023/03/30 06:47:55;;;;;;;3.20;1.23;;;17.50;99.90;;;;;;4992178;28;20601;-80
2023/03/30 06:50:22;;;;;;;3.57;1.20;;;17.50;99.90;;;;;;5008604;28;20240;-80
2023/03/30 06:53:03;;;;;;;2.77;1.20;;;17.50;99.90;;;;;;4991908;28;20610;-81
2023/03/30 06:55:37;;;;;;;4.53;1.13;;;17.60;99.90;;;;;;4975769;28;20589;-80
2023/03/30 06:58:02;;;;;;;4.37;1.37;;;17.60;99.90;;;;;;4991776;28;20938;-80
2023/03/30 07:00:28;;;;;;;4.40;1.43;;;17.70;99.90;;;;;;4993304;28;20191;-81
2023/03/30 07:03:15;;;;;;;3.90;1.13;;;17.80;99.90;;;;;;4990874;28;20265;-80
2023/03/30 07:05:51;;;;;;;5.27;1.20;;;17.80;99.90;;;;;;4975712;28;20594;-80
2023/03/30 07:08:39;;;;;;;3.80;1.10;;;17.80;99.90;;;;;;4991703;28;20605;-80
2023/03/30 07:11:08;;;;;;;5.10;2.07;;;17.80;99.90;;;;;;4993167;28;20744;-80
2023/03/30 07:13:36;;;;;;;5.37;1.10;;;17.80;99.90;;;;;;4991149;28;21139;-80
2023/03/30 07:16:03;;;;;;;6.03;2.37;;;17.90;99.90;;;;;;4993196;28;20728;-80
2023/03/30 07:18:30;;;;;;;4.80;1.53;;;17.90;99.90;;;;;;4991881;28;20594;-79
2023/03/30 07:20:58;;;;;;;5.57;1.80;;;18.00;99.90;;;;;;5006875;28;20593;-79
2023/03/30 07:23:27;;;;;;;4.40;1.60;;;18.00;99.90;;;;;;4992477;28;20175;-80
2023/03/30 07:25:53;;;;;;;6.90;1.90;;;18.10;99.90;;;;;;4991540;28;20621;-80
2023/03/30 07:28:26;;;;;;;3.80;1.57;;;18.10;99.90;;;;;;5007957;28;20549;-80
2023/03/30 07:30:52;;;;;;;5.50;1.63;;;18.20;99.90;;;;;;4990830;28;20601;-80
2023/03/30 07:33:20;;;;;;;3.80;1.90;;;18.30;99.90;;;;;;5008132;28;20693;-81
2023/03/30 07:35:48;;;;;;;3.07;1.27;;;18.50;99.90;;;;;;4991023;28;20604;-81
2023/03/30 07:38:19;;;;;;;4.03;1.33;;;18.70;99.90;;;;;;5007988;28;20622;-80
2023/03/30 07:40:50;;;;;;;7.13;1.10;;;18.90;99.90;;;;;;4990761;28;20586;-81
2023/03/30 07:43:17;;;;;;;3.40;1.77;;;19.10;99.90;;;;;;5007865;28;20935;-81
2023/03/30 07:45:43;;;;;;;4.40;1.50;;;19.20;99.90;;;;;;4959618;28;21224;-81
2023/03/30 07:48:13;;;;;;;4.57;1.57;;;19.30;99.90;;;;;;4992963;28;20931;-81
2023/03/30 07:50:39;;;;;;;3.50;1.23;;;19.30;99.90;;;;;;4991402;28;20601;-81
2023/03/30 07:53:05;;;;;;;4.40;1.07;;;19.30;99.90;;;;;;4990561;28;20202;-81
2023/03/30 07:55:31;;;;;;;3.83;0.90;;;19.40;99.90;;;;;;4992364;28;20179;-81
2023/03/30 07:58:07;;;;;;;5.50;0.80;;;19.40;99.90;;;;;;4991144;28;20648;-81
2023/03/30 08:00:33;;;;;;;4.73;1.77;;;19.50;99.90;;;;;;5007396;28;20601;-81
2023/03/30 08:03:18;;;;;;;2.30;0.70;;;19.50;99.90;;;;;;4992097;28;20163;-81
2023/03/30 08:06:03;;;;;;;2.50;0.80;;;19.60;99.90;;;;;;4974842;28;20949;-80
2023/03/30 08:08:33;;;;;;;4.97;1.13;;;19.70;99.90;;;;;;4974504;28;20746;-80
2023/03/30 08:11:00;;;;;;;3.07;0.90;;;19.90;99.90;;;;;;4973972;28;20594;-80
2023/03/30 08:13:26;;;;;;;3.60;0.90;;;20.00;99.90;;;;;;5006634;28;20601;-80
2023/03/30 08:15:53;;;;;;;5.10;1.33;;;20.20;99.90;;;;;;4991154;28;20641;-80
2023/03/30 08:18:19;;;;;;;2.60;0.70;;;20.30;99.90;;;;;;4991656;28;20167;-80
2023/03/30 08:20:49;;;;;;;2.13;0.80;;;20.40;99.90;;;;;;4990358;28;20592;-80
2023/03/30 08:23:15;;;;;;;3.57;1.30;;;20.40;99.90;;;;;;4994551;28;20606;-80
2023/03/30 08:25:41;;;;;;;4.00;0.90;;;20.40;99.90;;;;;;4992470;28;20748;-80
2023/03/30 08:28:07;;;;;;;3.40;0.90;;;20.40;99.90;;;;;;4991853;28;20167;-81
2023/03/30 08:30:33;;;;;;;2.80;1.10;;;20.40;99.90;;;;;;4974156;28;20581;-80
2023/03/30 08:32:59;;;;;;;3.17;0.90;;;20.30;99.90;;;;;;4989189;28;20613;-80
2023/03/30 08:35:25;;;;;;;2.43;1.03;;;20.20;99.90;;;;;;4974129;28;20314;-80
2023/03/30 08:37:51;;;;;;;3.77;1.10;;;20.00;99.90;;;;;;4988087;28;20244;-81
2023/03/30 08:40:17;;;;;;;2.53;0.70;;;20.00;99.90;;;;;;4990046;28;20527;-80
2023/03/30 08:43:15;;;;;;;2.40;0.90;;;20.00;99.90;;;;;;4990815;28;20626;-81
2023/03/30 08:45:42;;;;;;;2.40;1.00;;;20.00;99.90;;;;;;4990351;28;20972;-82
2023/03/30 08:48:18;;;;;;;2.80;1.00;;;20.00;99.90;;;;;;4995654;28;20593;-81
2023/03/30 08:51:10;;;;;;;3.00;0.97;;;20.10;99.90;;;;;;4997092;28;20586;-79
2023/03/30 08:53:36;;;;;;;3.83;0.80;;;20.00;99.90;;;;;;4991157;28;20595;-80
2023/03/30 08:56:02;;;;;;;5.20;1.10;;;20.00;99.90;;;;;;4996512;28;20657;-81
2023/03/30 08:58:48;;;;;;;5.00;1.00;;;19.90;99.90;;;;;;4996322;28;20591;-80
2023/03/30 09:01:29;;;;;;;5.90;0.90;;;19.80;99.90;;;;;;4996484;28;20195;-81
2023/03/30 09:04:23;;;;;;;2.33;0.87;;;19.80;99.90;;;;;;4993382;28;20589;-80
2023/03/30 09:06:50;;;;;;;2.77;1.00;;;19.60;99.90;;;;;;4989933;28;20606;-81
2023/03/30 09:09:27;;;;;;;2.80;0.80;;;19.50;99.90;;;;;;5022357;23;20678;-79
2023/03/30 09:12:17;;;;;;;5.97;1.20;;;19.30;99.90;;;;;;5014254;28;20600;-80
2023/03/30 09:14:54;;;;;;;3.37;0.90;;;19.00;99.90;;;;;;5004236;28;20603;-80
2023/03/30 09:17:31;;;;;;;4.33;1.00;;;18.70;99.90;;;;;;5015657;28;21056;-79
2023/03/30 09:20:27;;;;;;;3.00;1.20;;;18.60;99.90;;;;;;5010793;28;20623;-79
2023/03/30 09:22:57;;;;;;;2.37;0.77;;;18.50;99.90;;;;;;5000429;28;20698;-80
2023/03/30 09:25:31;;;;;;;4.43;0.83;;;18.40;99.90;;;;;;5010671;28;20589;-79
2023/03/30 09:27:59;;;;;;;3.97;0.90;;;18.30;99.90;;;;;;5012946;28;20593;-81
2023/03/30 09:30:39;;;;;;;3.43;0.80;;;18.30;99.90;;;;;;4983707;28;20581;-80
2023/03/30 09:33:25;;;;;;;2.33;0.90;;;18.20;99.90;;;;;;4992761;28;20702;-79
2023/03/30 09:36:06;;;;;;;4.47;0.90;;;18.10;99.90;;;;;;5001371;28;20630;-79
2023/03/30 09:38:32;;;;;;;4.77;0.90;;;17.90;99.90;;;;;;5033169;28;20624;-79
2023/03/30 09:41:23;;;;;;;3.47;0.80;;;17.80;99.90;;;;;;4992515;28;20728;-80
2023/03/30 09:43:50;;;;;;;2.63;0.90;;;17.50;99.90;;;;;;5010184;28;20189;-80
2023/03/30 09:46:16;;;;;;;7.23;1.20;;;17.20;99.90;;;;;;5013120;28;20593;-79
2023/03/30 09:48:45;;;;;;;4.60;0.70;;;16.80;99.90;;;;;;5013333;28;20606;-78
2023/03/30 09:51:26;;;;;;;3.30;0.77;;;16.40;99.90;;;;;;5011575;28;20621;-79
2023/03/30 09:54:00;;;;;;;3.80;0.60;;;15.90;99.90;;;;;;5011877;28;20585;-79
2023/03/30 09:56:50;;;;;;;3.40;0.60;;;15.50;99.90;;;;;;5014179;28;20615;-79
2023/03/30 09:59:31;;;;;;;4.37;0.90;;;15.10;99.90;;;;;;5013166;28;20620;-81
2023/03/30 10:02:14;;;;;;;4.05;0.80;;;14.70;99.90;;;;;;5012414;28;20715;-80
2023/03/30 10:04:52;;;;;;;3.77;0.70;;;14.40;99.90;;;;;;5011935;28;20170;-80
2023/03/30 10:07:40;;;;;;;3.15;0.88;;;14.10;99.90;;;;;;5012593;28;20592;-80
2023/03/30 10:10:30;;;;;;;2.80;0.60;;;13.90;99.90;;;;;;5012827;28;20296;-78
2023/03/30 10:13:32;;;;;;;2.10;0.55;;;13.80;99.90;;;;;;5012090;28;20182;-79
2023/03/30 10:16:23;;;;;;;1.50;0.60;;;13.70;99.90;;;;;;4988765;28;20210;-79
2023/03/30 10:18:58;;;;;;;3.15;0.65;;;13.80;99.90;;;;;;5013563;28;20206;-80
2023/03/30 10:21:28;;;;;;;2.90;0.80;;;14.00;99.90;;;;;;5006417;28;20177;-80
2023/03/30 10:24:14;;;;;;;4.27;1.00;;;14.20;99.90;;;;;;5012176;28;20592;-81
2023/03/30 10:26:45;;;;;;;3.70;0.90;;;14.50;99.90;;;;;;4995129;28;20620;-80
2023/03/30 10:29:18;;;;;;;2.33;0.60;;;14.80;99.90;;;;;;5011986;28;20629;-78
2023/03/30 10:31:51;;;;;;;2.60;0.60;;;15.10;99.90;;;;;;5011204;28;20577;-79
2023/03/30 10:34:35;;;;;;;1.80;0.60;;;15.30;99.90;;;;;;5011827;28;20684;-80
2023/03/30 10:37:05;;;;;;;2.17;0.60;;;15.40;99.90;;;;;;5011835;28;20640;-81
2023/03/30 10:39:37;;;;;;;2.00;0.60;;;15.40;99.90;;;;;;5012682;28;20617;-78
2023/03/30 10:42:04;;;;;;;1.83;0.50;;;15.50;99.90;;;;;;5012871;28;20676;-79
2023/03/30 10:44:52;;;;;;;7.30;3.50;;;15.60;99.90;;;;;;5011175;28;20599;-78
2023/03/30 10:47:30;;;;;;;7.13;5.00;;;15.80;99.90;;;;;;5012762;28;20613;-79
2023/03/30 10:50:19;;;;;;;4.47;2.70;;;16.20;99.90;;;;;;5010761;28;20713;-79
2023/03/30 10:53:22;;;;;;;3.30;1.53;;;16.60;99.90;;;;;;5012774;28;20616;-79
2023/03/30 10:56:13;;;;;;;2.23;1.10;;;16.90;99.90;;;;;;5009838;28;20719;-78
2023/03/30 10:58:51;;;;;;;3.47;0.80;;;17.40;99.90;;;;;;4995103;28;20609;-79
2023/03/30 11:01:41;;;;;;;1.80;0.70;;;17.90;99.90;;;;;;5010639;28;20624;-80
2023/03/30 11:04:16;;;;;;;1.50;0.60;;;18.30;99.90;;;;;;4995221;28;20589;-79
2023/03/30 11:06:43;;;;;;;2.07;0.67;;;18.70;99.90;;;;;;4978148;28;20584;-79
2023/03/30 11:09:18;;;;;;;1.40;0.53;;;19.20;99.90;;;;;;5010957;28;20633;-77
2023/03/30 11:12:11;;;;;;;1.83;0.70;;;19.70;99.90;;;;;;5011331;28;20595;-79
2023/03/30 11:14:48;;;;;;;3.97;0.80;;;20.20;99.90;;;;;;5012417;28;20600;-79
2023/03/30 11:17:42;;;;;;;2.13;0.70;;;20.90;99.90;;;;;;4993972;28;20767;-80
2023/03/30 11:20:53;;;;;;;2.00;0.60;;;21.40;99.90;;;;;;4994690;28;20716;-79
2023/03/30 11:23:58;;;;;;;2.63;0.90;;;21.80;99.90;;;;;;4992104;28;20581;-80
2023/03/30 11:26:39;;;;;;;3.13;0.70;;;21.80;99.90;;;;;;4991392;28;20577;-78
2023/03/30 11:29:36;;;;;;;2.80;1.37;;;21.70;99.90;;;;;;4996639;28;20602;-80
2023/03/30 11:32:28;;;;;;;7.03;3.47;;;21.40;99.90;;;;;;4974697;28;20582;-80
2023/03/30 11:35:04;;;;;;;5.03;2.87;;;21.10;99.90;;;;;;4991947;28;20562;-79
2023/03/30 11:37:58;;;;;;;4.33;2.00;;;20.70;99.90;;;;;;4990841;28;20637;-79
2023/03/30 11:40:26;;;;;;;5.43;2.07;;;20.40;99.90;;;;;;4990438;28;20594;-78
2023/03/30 11:42:52;;;;;;;8.57;1.80;;;20.40;99.90;;;;;;4992908;28;20681;-79
2023/03/30 11:45:24;;;;;;;6.13;1.20;;;20.40;99.90;;;;;;5009818;28;20659;-78
2023/03/30 11:47:53;;;;;;;3.90;1.53;;;20.60;99.90;;;;;;4993864;28;20589;-79
2023/03/30 11:50:22;;;;;;;3.57;1.00;;;20.90;99.90;;;;;;4993710;28;20581;-79
2023/03/30 11:53:02;;;;;;;5.50;1.00;;;21.20;99.90;;;;;;5009977;28;20581;-79
2023/03/30 11:55:42;;;;;;;4.83;1.13;;;21.20;99.90;;;;;;5009873;28;20587;-79
2023/03/30 11:58:25;;;;;;;6.70;1.27;;;21.30;99.90;;;;;;5011408;28;20706;-80
2023/03/30 12:01:10;;;;;;;4.57;1.73;;;21.40;99.90;;;;;;5010976;28;20604;-80
2023/03/30 12:03:41;;;;;;;2.57;0.80;;;21.50;99.90;;;;;;4993696;28;20668;-79
2023/03/30 12:06:31;;;;;;;1.90;0.70;;;21.60;99.90;;;;;;5015460;28;20604;-80
2023/03/30 12:08:56;;;;;;;4.00;0.80;;;21.80;99.90;;;;;;5010374;28;20624;-79
2023/03/30 12:11:50;;;;;;;2.83;0.80;;;22.20;99.90;;;;;;5010383;28;20577;-79
2023/03/30 12:14:38;;;;;;;3.37;1.20;;;22.40;99.90;;;;;;5001824;28;20182;-80
2023/03/30 12:17:39;;;;;;;2.10;0.70;;;22.70;99.90;;;;;;5010235;28;20636;-78
2023/03/30 12:20:13;;;;;;;1.40;0.50;;;23.00;99.90;;;;;;5009008;28;20700;-79
2023/03/30 12:22:44;;;;;;;1.57;0.53;;;23.30;99.90;;;;;;5014250;28;21140;-78
2023/03/30 12:25:49;;;;;;;2.07;0.60;;;23.50;99.90;;;;;;5010161;28;20580;-79
2023/03/30 12:28:16;;;;;;;1.30;0.50;;;23.60;99.90;;;;;;5010421;28;20659;-77
2023/03/30 12:30:55;;;;;;;2.53;0.60;;;23.60;99.90;;;;;;5008497;28;20684;-77
2023/03/30 12:33:43;;;;;;;2.57;0.70;;;23.50;99.90;;;;;;5010051;28;20581;-78
2023/03/30 12:36:27;;;;;;;2.70;0.80;;;23.20;99.90;;;;;;5008557;28;21241;-80
2023/03/30 12:42:45;;;;;;;4.67;0.60;;;22.50;99.90;;;;;;4984377;28;20605;-76
2023/03/30 12:45:22;;;;;;;5.17;0.70;;;22.00;99.90;;;;;;4982686;28;20627;-79
2023/03/30 12:48:16;;;;;;;5.87;0.97;;;21.60;99.90;;;;;;4991385;28;20612;-79
2023/03/30 12:51:01;;;;;;;3.13;1.03;;;21.30;99.90;;;;;;4997076;28;20607;-77
2023/03/30 12:53:51;;;;;;;3.73;1.10;;;20.90;99.90;;;;;;5012895;28;20588;-77
2023/03/30 12:56:45;;;;;;;2.50;0.97;;;20.70;99.90;;;;;;5014435;28;20636;-77
2023/03/30 12:59:50;;;;;;;2.40;1.00;;;20.60;99.90;;;;;;5010351;28;21378;-76
2023/03/30 13:02:25;;;;;;;6.90;2.20;;;20.50;99.90;;;;;;5001533;28;20587;-76
2023/03/30 13:04:51;;;;;;;3.53;0.80;;;20.40;99.90;;;;;;5019784;28;20746;-79
2023/03/30 13:07:23;;;;;;;4.53;0.80;;;20.20;99.90;;;;;;5016417;28;21055;-78
2023/03/30 13:10:01;;;;;;;4.30;0.90;;;20.00;99.90;;;;;;4983696;28;1111817;-77
2023/03/30 13:12:40;;;;;;;5.50;0.93;;;19.80;99.90;;;;;;5017399;28;20539;-77
2023/03/30 13:15:28;;;;;;;4.80;1.47;;;19.40;99.90;;;;;;5021926;28;20636;-76
2023/03/30 13:17:54;;;;;;;3.47;1.10;;;19.20;99.90;;;;;;5011730;28;20644;-78
2023/03/30 13:20:26;;;;;;;3.60;1.03;;;18.80;99.90;;;;;;5012244;28;20581;-77
2023/03/30 13:23:04;;;;;;;2.57;0.80;;;18.50;99.90;;;;;;5012697;28;20193;-77
2023/03/30 13:25:42;;;;;;;1.97;0.70;;;18.10;99.90;;;;;;5012643;28;20597;-77
2023/03/30 13:28:47;;;;;;;3.47;0.97;;;17.80;99.90;;;;;;5013478;28;20604;-77
2023/03/30 13:31:39;;;;;;;2.10;0.67;;;17.50;99.90;;;;;;5013728;28;20561;-76
2023/03/30 13:34:36;;;;;;;3.13;0.80;;;17.30;99.90;;;;;;5013893;28;20581;-77
2023/03/30 13:37:20;;;;;;;2.40;0.73;;;17.10;99.90;;;;;;5011780;28;21467;-77
2023/03/30 13:40:15;;;;;;;3.77;0.80;;;16.90;99.90;;;;;;5013998;28;20601;-78
2023/03/30 13:43:10;;;;;;;4.50;0.70;;;16.60;99.90;;;;;;5013517;28;21044;-77